TimeCST,TemperatureF,Dew PointF,Humidity,Sea Level PressureIn,VisibilityMPH,Wind Direction,Wind SpeedMPH,Gust SpeedMPH,PrecipitationIn,Events,Conditions,WindDirDegrees,DateUTC
12:53 AM,34.0,30.0,85,29.98,10.0,East,15.0,-,N/A,,Overcast,80,2013-02-21 06:53:00
1:53 AM,34.0,30.0,85,29.96,10.0,East,12.7,27.6,0.00,,Overcast,80,2013-02-21 07:53:00
2:53 AM,34.0,28.9,82,29.93,10.0,East,13.8,-,N/A,,Overcast,90,2013-02-21 08:53:00
3:40 AM,34.0,28.9,82,29.91,10.0,East,10.4,23.0,0.00,,Overcast,90,2013-02-21 09:40:00
3:53 AM,34.0,30.0,85,29.92,8.0,East,12.7,-,0.00,Rain,Light Rain,100,2013-02-21 09:53:00
4:53 AM,34.0,30.0,85,29.90,9.0,East,15.0,20.7,0.00,,Overcast,90,2013-02-21 10:53:00
5:53 AM,34.0,30.0,85,29.86,9.0,East,15.0,-,0.00,,Overcast,90,2013-02-21 11:53:00
6:53 AM,34.0,30.9,89,29.82,3.0,East,12.7,18.4,0.08,Rain,Rain,80,2013-02-21 12:53:00
6:57 AM,34.0,30.9,89,29.82,1.8,East,12.7,28.8,0.02,Rain,Heavy Rain,80,2013-02-21 12:57:00
7:04 AM,34.0,30.9,89,29.81,3.0,East,11.5,21.9,0.03,Rain,Rain,80,2013-02-21 13:04:00
7:53 AM,34.0,32.0,92,29.80,6.0,East,15.0,-,0.03,Rain,Light Rain,90,2013-02-21 13:53:00
8:00 AM,34.0,30.9,89,29.79,2.5,East,13.8,-,0.04,Rain,Heavy Rain,90,2013-02-21 14:00:00
8:07 AM,34.0,32.0,92,29.79,2.5,East,9.2,19.6,0.05,Rain,Light Rain,80,2013-02-21 14:07:00
8:14 AM,34.0,32.0,92,29.78,4.0,East,12.7,-,0.05,Rain,Light Rain,90,2013-02-21 14:14:00
8:21 AM,34.0,30.9,89,29.76,2.5,East,15.0,21.9,0.12,Rain,Heavy Rain,90,2013-02-21 14:21:00
8:40 AM,34.0,32.0,92,29.76,1.5,East,16.1,-,0.17,Rain,Rain,100,2013-02-21 14:40:00
8:50 AM,33.8,32.0,93,29.78,2.5,East,10.4,-,0.17,Rain,Light Rain,100,2013-02-21 14:50:00
8:53 AM,34.0,32.0,92,29.78,3.0,East,10.4,-,0.17,Rain,Light Rain,90,2013-02-21 14:53:00
9:01 AM,34.0,32.0,92,29.78,2.5,East,10.4,-,0.02,Rain,Light Rain,90,2013-02-21 15:01:00
9:12 AM,35.1,32.0,89,29.78,4.0,East,11.5,-,0.02,Rain,Light Rain,90,2013-02-21 15:12:00
9:24 AM,34.0,32.0,92,29.79,1.8,East,8.1,-,0.05,Rain,Light Rain,80,2013-02-21 15:24:00
9:44 AM,35.1,33.1,92,29.79,2.0,ENE,6.9,-,0.06,Rain,Light Rain,70,2013-02-21 15:44:00
9:53 AM,35.1,33.1,92,29.78,2.0,East,9.2,-,0.06,Rain,Rain,80,2013-02-21 15:53:00
10:35 AM,35.1,33.1,92,29.77,1.5,East,9.2,-,0.00,Rain,Light Rain,80,2013-02-21 16:35:00
10:53 AM,36.0,34.0,93,29.77,1.5,ENE,10.4,-,0.01,Rain,Light Rain,70,2013-02-21 16:53:00
11:53 AM,37.0,35.1,93,29.78,1.0,NNE,4.6,-,0.00,Rain,Light Rain,20,2013-02-21 17:53:00
12:12 PM,37.0,35.1,93,29.77,0.8,NE,5.8,-,0.00,,Overcast,40,2013-02-21 18:12:00
12:35 PM,37.0,35.1,93,29.75,1.0,ENE,9.2,-,0.00,,Overcast,60,2013-02-21 18:35:00
12:45 PM,37.0,36.0,96,29.76,0.8,NE,5.8,-,0.00,,Overcast,40,2013-02-21 18:45:00
12:53 PM,37.0,36.0,96,29.77,0.8,NNE,4.6,-,0.00,,Overcast,20,2013-02-21 18:53:00
1:00 PM,37.9,36.0,93,29.75,1.2,NNE,4.6,-,N/A,,Overcast,30,2013-02-21 19:00:00
1:53 PM,39.0,37.0,93,29.69,3.0,East,10.4,-,0.00,,Overcast,80,2013-02-21 19:53:00
2:53 PM,39.9,37.0,89,29.71,10.0,East,6.9,-,N/A,,Overcast,100,2013-02-21 20:53:00
3:53 PM,39.9,37.9,93,29.74,8.0,Calm,Calm,-,N/A,,Overcast,0,2013-02-21 21:53:00
4:53 PM,41.0,37.9,89,29.76,7.0,Calm,Calm,-,N/A,,Overcast,0,2013-02-21 22:53:00
5:44 PM,41.0,37.9,89,29.78,7.0,NE,4.6,-,N/A,,Overcast,50,2013-02-21 23:44:00
5:53 PM,41.0,37.9,89,29.78,6.0,ENE,3.5,-,N/A,,Overcast,70,2013-02-21 23:53:00
6:18 PM,39.9,37.9,93,29.79,5.0,East,3.5,-,N/A,,Overcast,80,2013-02-22 00:18:00
6:53 PM,39.9,37.9,93,29.80,5.0,ESE,3.5,-,N/A,,Overcast,120,2013-02-22 00:53:00
7:22 PM,37.9,37.0,97,29.82,3.0,East,4.6,-,N/A,,Overcast,100,2013-02-22 01:22:00
7:31 PM,39.0,37.9,96,29.82,2.5,East,4.6,-,N/A,,Overcast,90,2013-02-22 01:31:00
7:37 PM,39.0,37.9,96,29.82,0.8,East,4.6,-,N/A,,Overcast,90,2013-02-22 01:37:00
7:53 PM,39.0,39.0,100,29.83,0.5,East,3.5,-,N/A,Fog,Fog,100,2013-02-22 01:53:00
8:16 PM,39.0,37.9,96,29.83,1.8,ESE,5.8,-,N/A,,Overcast,120,2013-02-22 02:16:00
8:45 PM,39.0,37.9,96,29.84,2.0,ESE,5.8,-,N/A,,Overcast,110,2013-02-22 02:45:00
9:25 PM,39.0,37.9,96,29.87,0.8,NE,3.5,-,N/A,,Overcast,40,2013-02-22 03:25:00
9:33 PM,39.0,39.0,100,29.87,1.0,Calm,Calm,-,N/A,,Overcast,0,2013-02-22 03:33:00
9:42 PM,39.0,39.0,100,29.87,0.8,Calm,Calm,-,N/A,,Mist,0,2013-02-22 03:42:00
9:53 PM,39.0,37.9,96,29.88,0.8,Calm,Calm,-,N/A,,Mist,0,2013-02-22 03:53:00
10:53 PM,39.0,37.9,96,29.91,0.2,NW,3.5,-,N/A,Fog,Fog,320,2013-02-22 04:53:00
11:13 PM,37.9,37.9,100,29.92,0.5,WNW,5.8,-,N/A,Fog,Fog,290,2013-02-22 05:13:00
11:53 PM,39.0,37.9,96,29.93,1.8,WNW,4.6,-,N/A,,Overcast,290,2013-02-22 05:53:00